Time;durP1;ratioP1;P1;durP2;ratioP2;P2;SDS_P1;SDS_P2;PMS_P1;PMS_P2;Temp;Humidity;BMP_temperature;BMP_pressure;BME280_temperature;BME280_humidity;BME280_pressure;Samples;Min_cycle;Max_cycle;Signal;HPM_P1;HPM_P2
2022/02/24 00:02:02;;;;;;;39.23;15.80;;;;;;;-0.14;95.59;101212.97;3511937;82;99621;-85
2022/02/24 00:07:03;;;;;;;37.07;15.27;;;;;;;-0.11;96.70;101198.85;3518641;81;99154;-85
2022/02/24 00:12:06;;;;;;;38.23;15.03;;;;;;;-0.07;97.01;101196.41;3473419;82;99072;-85
2022/02/24 00:17:07;;;;;;;39.37;15.53;;;;;;;-0.03;96.81;101196.88;3421040;80;99074;-86
2022/02/24 00:22:08;;;;;;;42.97;16.97;;;;;;;-0.02;97.07;101193.08;3531793;81;98634;-86
2022/02/24 00:27:10;;;;;;;41.20;17.03;;;;;;;-0.04;96.84;101187.16;3510429;82;99305;-86
2022/02/24 00:32:11;;;;;;;32.57;15.07;;;;;;;-0.05;97.00;101175.52;3525580;82;99513;-86
2022/02/24 00:37:14;;;;;;;46.77;17.83;;;;;;;-0.06;97.20;101183.92;3516693;82;99395;-87
2022/02/24 00:42:15;;;;;;;38.60;17.23;;;;;;;-0.06;97.34;101184.73;3515616;82;99016;-86
2022/02/24 00:47:16;;;;;;;38.92;15.50;;;;;;;-0.04;97.49;101186.59;3497418;83;98852;-86
2022/02/24 00:52:17;;;;;;;40.67;17.47;;;;;;;-0.04;97.74;101177.69;3505775;83;99008;-86
2022/02/24 00:57:18;;;;;;;47.63;18.43;;;;;;;-0.02;97.63;101177.41;3495450;83;98844;-86
2022/02/24 01:02:19;;;;;;;49.10;19.57;;;;;;;-0.06;97.43;101172.56;3499046;83;99213;-86
2022/02/24 01:07:20;;;;;;;42.17;16.20;;;;;;;-0.09;97.49;101166.92;3496844;83;99180;-86
2022/02/24 01:12:20;;;;;;;43.33;18.83;;;;;;;-0.07;97.72;101162.02;3500780;83;98956;-86
2022/02/24 01:17:21;;;;;;;44.98;17.42;;;;;;;-0.06;97.77;101163.63;3477486;82;99194;-86
2022/02/24 01:22:22;;;;;;;43.27;18.53;;;;;;;-0.09;97.50;101148.77;3510302;83;98973;-86
2022/02/24 01:27:23;;;;;;;44.97;16.70;;;;;;;-0.09;97.63;101142.02;3499730;81;99127;-86
2022/02/24 01:32:25;;;;;;;46.90;18.73;;;;;;;-0.08;97.51;101132.01;3506516;83;98970;-86
2022/02/24 01:37:27;;;;;;;41.70;17.07;;;;;;;-0.10;97.53;101130.94;3493797;83;99078;-85
2022/02/24 01:42:29;;;;;;;41.20;16.50;;;;;;;-0.16;97.49;101112.38;3494359;83;99068;-85
2022/02/24 01:47:29;;;;;;;42.20;17.62;;;;;;;-0.17;97.62;101103.44;3442719;83;99155;-86
2022/02/24 01:52:30;;;;;;;52.53;19.83;;;;;;;-0.17;97.44;101097.21;3498717;83;98816;-86
2022/02/24 01:57:31;;;;;;;56.57;23.90;;;;;;;-0.17;97.58;101095.86;3501619;82;99343;-86
2022/02/24 02:02:32;;;;;;;64.13;26.80;;;;;;;-0.23;97.55;101092.17;3501968;82;99378;-85
2022/02/24 02:07:34;;;;;;;56.00;23.87;;;;;;;-0.32;97.13;101093.37;3486028;83;99493;-85
2022/02/24 02:12:53;;;;;;;49.07;20.60;;;;;;;-0.40;97.26;101082.38;3491342;83;99757;-85
2022/02/24 02:17:54;;;;;;;59.23;22.73;;;;;;;-0.44;97.30;101086.19;3488234;83;99155;-85
2022/02/24 02:22:55;;;;;;;44.27;15.70;;;;;;;-0.50;97.74;101068.41;3491159;82;98707;-85
2022/02/24 02:27:56;;;;;;;34.67;13.33;;;;;;;-0.52;98.07;101061.69;3476001;82;99079;-85
2022/02/24 02:32:58;;;;;;;30.93;13.80;;;;;;;-0.49;98.66;101056.53;3484439;83;99031;-85
2022/02/24 02:37:59;;;;;;;32.27;14.10;;;;;;;-0.39;99.62;101054.25;3475524;82;99165;-84
2022/02/24 02:43:00;;;;;;;32.10;12.17;;;;;;;-0.28;99.53;101040.85;3498547;83;99053;-84
2022/02/24 02:48:01;;;;;;;33.90;12.27;;;;;;;-0.19;99.51;101037.20;3484851;82;99102;-85
2022/02/24 02:53:04;;;;;;;36.23;15.10;;;;;;;-0.12;99.59;101030.88;3490248;82;34834;-84
2022/02/24 02:58:04;;;;;;;30.52;12.90;;;;;;;-0.04;99.84;101024.26;3484937;82;98825;-84
2022/02/24 03:03:05;;;;;;;28.17;11.47;;;;;;;0.03;99.62;101019.31;3492302;82;99065;-84
2022/02/24 03:08:07;;;;;;;29.87;12.13;;;;;;;0.10;99.66;101017.03;3496223;82;98833;-84
2022/02/24 03:13:08;;;;;;;33.23;12.47;;;;;;;0.21;99.62;101012.25;3505135;83;99226;-85
2022/02/24 03:18:10;;;;;;;30.93;10.37;;;;;;;0.28;100.00;101008.08;3499960;82;98538;-86
2022/02/24 03:23:12;;;;;;;25.47;11.17;;;;;;;0.45;100.00;101002.92;3504463;82;34912;-86
2022/02/24 03:28:13;;;;;;;33.80;10.83;;;;;;;0.60;99.91;101002.67;3497807;82;99179;-85
2022/02/24 03:33:14;;;;;;;25.90;11.03;;;;;;;0.68;99.29;100991.72;3497919;83;98829;-85
2022/02/24 03:38:14;;;;;;;28.13;11.83;;;;;;;0.69;98.68;100991.96;3486919;83;98907;-84
2022/02/24 03:43:15;;;;;;;29.40;11.60;;;;;;;0.65;98.43;100990.41;3505624;82;98871;-84
2022/02/24 03:48:16;;;;;;;31.60;12.00;;;;;;;0.62;98.10;100992.34;3496168;82;99142;-84
2022/02/24 03:53:17;;;;;;;29.60;11.50;;;;;;;0.58;97.89;100991.88;3505015;83;35511;-85
2022/02/24 03:58:18;;;;;;;30.13;11.93;;;;;;;0.55;97.82;100993.85;3492958;83;99103;-84
2022/02/24 04:03:19;;;;;;;29.47;12.30;;;;;;;0.47;97.73;100983.68;3505575;82;99128;-85
2022/02/24 04:08:20;;;;;;;34.40;15.13;;;;;;;0.41;97.62;100985.69;3497807;82;99097;-85
2022/02/24 04:13:22;;;;;;;29.23;14.47;;;;;;;0.36;97.53;100980.89;3488744;81;98965;-84
2022/02/24 04:18:23;;;;;;;34.77;14.50;;;;;;;0.29;97.60;100971.78;3492573;83;99634;-84
2022/02/24 04:23:23;;;;;;;33.17;15.07;;;;;;;0.20;97.57;100968.70;3505421;82;32437;-85
2022/02/24 04:28:24;;;;;;;32.70;14.28;;;;;;;0.10;97.69;100952.08;3499905;82;98643;-84
2022/02/24 04:33:25;;;;;;;33.00;13.70;;;;;;;0.05;97.89;100942.69;3504340;82;98826;-84
2022/02/24 04:38:26;;;;;;;28.87;13.53;;;;;;;0.03;97.88;100942.73;3493312;82;98856;-84
2022/02/24 04:43:27;;;;;;;29.80;12.17;;;;;;;-0.02;98.16;100931.45;3494749;83;98758;-85
2022/02/24 04:48:27;;;;;;;25.47;11.20;;;;;;;-0.06;98.10;100933.66;3496604;82;99158;-85
2022/02/24 04:53:28;;;;;;;28.40;12.15;;;;;;;-0.10;98.22;100920.50;3500806;82;32474;-85
2022/02/24 04:58:29;;;;;;;28.17;11.77;;;;;;;-0.15;98.40;100915.95;3482786;83;99077;-85
2022/02/24 05:03:30;;;;;;;39.27;13.27;;;;;;;-0.18;98.43;100911.67;3497727;81;98697;-85
2022/02/24 05:08:31;;;;;;;30.77;14.37;;;;;;;-0.22;98.40;100914.17;3485547;82;99066;-85
2022/02/24 05:13:32;;;;;;;36.73;15.43;;;;;;;-0.26;98.56;100904.25;3491646;82;98935;-85
2022/02/24 05:18:33;;;;;;;41.50;16.77;;;;;;;-0.29;98.74;100898.05;3488290;83;99215;-85
2022/02/24 05:23:34;;;;;;;48.83;18.77;;;;;;;-0.34;98.87;100892.72;3483363;83;26036;-86
2022/02/24 05:28:35;;;;;;;31.97;13.33;;;;;;;-0.37;98.74;100895.47;3475647;82;99293;-85
2022/02/24 05:33:35;;;;;;;29.23;11.60;;;;;;;-0.40;98.91;100889.06;3483414;83;99266;-85
2022/02/24 05:38:36;;;;;;;30.52;12.10;;;;;;;-0.42;98.98;100879.31;3485279;82;99069;-84
2022/02/24 05:43:37;;;;;;;31.67;11.30;;;;;;;-0.39;99.33;100884.69;3454508;81;99841;-85
2022/02/24 05:48:38;;;;;;;27.40;10.60;;;;;;;-0.38;99.61;100884.15;3430886;83;99459;-84
2022/02/24 05:53:39;;;;;;;25.37;11.53;;;;;;;-0.34;99.74;100884.61;3488386;83;33198;-85
2022/02/24 05:58:40;;;;;;;26.30;10.13;;;;;;;-0.30;99.84;100880.23;3419598;84;98823;-85
2022/02/24 06:03:41;;;;;;;25.97;11.07;;;;;;;-0.26;99.98;100879.91;3428748;84;99292;-84
2022/02/24 06:08:41;;;;;;;31.53;11.80;;;;;;;-0.20;99.99;100878.16;3430392;83;99159;-86
2022/02/24 06:13:42;;;;;;;30.23;13.43;;;;;;;-0.14;99.97;100880.25;3437216;83;99320;-84
2022/02/24 06:18:43;;;;;;;25.53;10.37;;;;;;;-0.10;99.88;100869.88;3449758;83;99094;-86
2022/02/24 06:23:45;;;;;;;28.90;11.03;;;;;;;-0.05;99.93;100873.08;3456848;84;27696;-85
2022/02/24 06:28:46;;;;;;;28.10;10.07;;;;;;;0.02;100.00;100872.92;3442072;83;99016;-86
2022/02/24 06:33:46;;;;;;;30.25;11.25;;;;;;;0.12;99.93;100871.97;3456669;83;98931;-85
2022/02/24 06:38:47;;;;;;;27.57;11.03;;;;;;;0.21;99.87;100871.52;3453773;84;98778;-84
2022/02/24 06:43:48;;;;;;;25.67;11.67;;;;;;;0.29;99.68;100864.86;3447182;83;98853;-90
2022/02/24 06:48:49;;;;;;;27.40;12.45;;;;;;;0.39;99.62;100857.91;3441942;83;98845;-89
2022/02/24 06:53:50;;;;;;;29.63;14.07;;;;;;;0.48;99.46;100852.60;3464443;84;27888;-90
2022/02/24 06:58:52;;;;;;;32.17;13.80;;;;;;;0.54;99.21;100845.45;3448908;82;98924;-89
2022/02/24 07:03:52;;;;;;;30.40;12.70;;;;;;;0.58;99.07;100842.39;3460424;83;98724;-89
2022/02/24 07:08:53;;;;;;;33.27;14.90;;;;;;;0.66;98.95;100835.48;3407685;84;98918;-89
2022/02/24 07:13:54;;;;;;;26.97;12.00;;;;;;;0.72;98.83;100837.77;3404010;85;98909;-89
2022/02/24 07:18:55;;;;;;;35.70;15.40;;;;;;;0.79;98.72;100835.47;3408380;84;99159;-89
2022/02/24 07:23:56;;;;;;;31.00;13.87;;;;;;;0.89;98.75;100826.32;3440974;85;34855;-87
2022/02/24 07:28:57;;;;;;;32.53;13.23;;;;;;;0.96;98.69;100824.81;3427002;85;99165;-88
2022/02/24 07:33:58;;;;;;;39.70;13.70;;;;;;;1.07;98.76;100825.38;3443512;84;98678;-91
2022/02/24 07:39:00;;;;;;;29.53;13.63;;;;;;;1.19;98.43;100814.27;3432691;83;99168;-92
2022/02/24 07:44:00;;;;;;;29.87;11.27;;;;;;;1.29;98.23;100818.11;3439898;83;99330;-90
2022/02/24 07:49:02;;;;;;;33.67;13.00;;;;;;;1.42;98.12;100815.89;3432835;83;99179;-90
2022/02/24 07:54:03;;;;;;;34.53;13.70;;;;;;;1.56;97.96;100809.05;3444232;83;99083;-92
2022/02/24 07:59:04;;;;;;;29.53;12.30;;;;;;;1.71;97.73;100804.05;3424496;84;98998;-91
2022/02/24 08:04:05;;;;;;;32.30;13.17;;;;;;;1.84;97.29;100794.24;3439124;83;98957;-92
2022/02/24 08:09:06;;;;;;;32.20;13.07;;;;;;;1.98;97.08;100788.97;3478238;82;99106;-90
2022/02/24 08:14:07;;;;;;;36.47;13.70;;;;;;;2.17;96.60;100777.34;3498797;82;99120;-92
2022/02/24 08:19:08;;;;;;;28.13;12.17;;;;;;;2.37;96.33;100783.59;3449418;83;99114;-92
2022/02/24 08:24:09;;;;;;;28.73;12.47;;;;;;;2.60;95.73;100757.94;3450921;82;98972;-89
2022/02/24 08:29:10;;;;;;;24.73;10.67;;;;;;;2.92;94.19;100762.95;3484263;82;98704;-91
2022/02/24 08:34:11;;;;;;;30.47;12.70;;;;;;;3.26;93.11;100764.88;3487349;83;99116;-92
2022/02/24 08:39:12;;;;;;;27.07;11.90;;;;;;;3.54;91.79;100749.80;3484508;82;99550;-92
2022/02/24 08:44:13;;;;;;;30.87;11.30;;;;;;;3.80;91.41;100739.67;3486475;83;99238;-91
2022/02/24 08:49:14;;;;;;;30.63;11.20;;;;;;;4.09;90.98;100720.70;3477124;82;99284;-90
2022/02/24 08:54:15;;;;;;;32.13;11.80;;;;;;;4.40;90.71;100712.45;3487836;81;98846;-92
2022/02/24 08:59:16;;;;;;;29.10;11.57;;;;;;;4.74;89.46;100701.91;3487043;82;98973;-91
2022/02/24 09:04:18;;;;;;;20.27;9.80;;;;;;;5.13;88.93;100689.16;3486182;82;99086;-90
2022/02/24 09:09:19;;;;;;;26.47;10.03;;;;;;;5.65;86.01;100687.52;3476789;81;98912;-93
2022/02/24 09:14:20;;;;;;;24.33;10.03;;;;;;;5.96;86.61;100667.35;3491599;81;99182;-93
2022/02/24 09:19:21;;;;;;;25.93;9.77;;;;;;;6.18;84.47;100661.44;3493933;82;99195;-92
2022/02/24 09:24:22;;;;;;;22.83;8.07;;;;;;;6.50;83.01;100638.05;3483258;82;98887;-92
2022/02/24 09:29:23;;;;;;;25.57;8.77;;;;;;;6.77;82.69;100625.58;3461051;83;98567;-91
2022/02/24 09:34:24;;;;;;;20.77;8.57;;;;;;;7.05;82.09;100621.72;3479317;83;98822;-93
2022/02/24 09:39:25;;;;;;;25.48;12.33;;;;;;;7.43;82.16;100618.44;3479770;83;98928;-93
2022/02/24 09:44:26;;;;;;;27.43;11.93;;;;;;;7.84;83.27;100600.11;3485154;83;98840;-92
2022/02/24 09:49:29;;;;;;;24.07;11.13;;;;;;;8.08;79.55;100599.34;3473662;83;98938;-93
2022/02/24 09:54:30;;;;;;;24.83;10.90;;;;;;;8.00;78.06;100598.16;3479543;83;99371;-92
2022/02/24 09:59:31;;;;;;;24.20;10.00;;;;;;;8.08;79.75;100580.16;3401988;84;99207;-94
2022/02/24 10:04:33;;;;;;;22.03;10.23;;;;;;;8.34;78.79;100573.55;3380588;85;98938;-94
2022/02/24 10:09:34;;;;;;;23.40;9.03;;;;;;;8.53;78.00;100560.44;3405746;84;98990;-92
2022/02/24 10:14:36;;;;;;;21.53;8.83;;;;;;;8.77;77.76;100554.09;3366077;83;99095;-95
2022/02/24 10:19:48;;;;;;;25.47;10.20;;;;;;;8.97;75.83;100538.39;3425662;84;99058;-94
2022/02/24 10:25:02;;;;;;;23.35;10.40;;;;;;;9.14;74.09;100540.67;3467305;83;98815;-93
2022/02/24 10:30:13;;;;;;;20.32;9.35;;;;;;;9.03;74.02;100518.53;3452201;84;98895;-92
2022/02/24 10:35:28;;;;;;;21.93;8.68;;;;;;;9.00;73.02;100506.12;3472246;83;33394;-94
2022/02/24 10:40:33;;;;;;;23.40;8.60;;;;;;;8.87;73.77;100493.13;3484765;81;98633;-91
2022/02/24 10:45:35;;;;;;;18.20;7.83;;;;;;;8.67;70.78;100470.98;3506368;82;98903;-95
2022/02/24 10:50:56;;;;;;;18.97;7.93;;;;;;;8.59;69.81;100465.16;3488221;83;98522;-90
2022/02/24 10:56:07;;;;;;;18.30;8.03;;;;;;;8.51;69.29;100459.30;3494286;82;98340;-92
2022/02/24 11:01:17;;;;;;;24.83;10.83;;;;;;;8.59;69.90;100445.14;3488864;83;99082;-93
2022/02/24 11:06:21;;;;;;;25.88;10.82;;;;;;;8.77;70.00;100425.12;3502022;81;99355;-93
2022/02/24 11:11:28;;;;;;;22.00;10.15;;;;;;;9.07;71.88;100409.59;3475850;83;98813;-93
2022/02/24 11:16:29;;;;;;;26.67;10.73;;;;;;;9.38;69.00;100407.91;3389606;83;98952;-89
2022/02/24 11:21:31;;;;;;;20.27;8.53;;;;;;;9.54;70.21;100393.44;3445702;83;99086;-92
2022/02/24 11:26:43;;;;;;;22.17;9.77;;;;;;;9.74;70.15;100380.36;3485124;83;99588;-92
2022/02/24 11:32:09;;;;;;;24.30;10.30;;;;;;;9.77;69.77;100373.53;3412940;85;99051;-93
2022/02/24 11:37:30;;;;;;;17.62;7.08;;;;;;;9.88;69.08;100357.20;3395605;85;99272;-93
2022/02/24 11:42:34;;;;;;;16.23;7.45;;;;;;;10.01;68.94;100351.08;3407780;85;99083;-91
2022/02/24 11:48:00;;;;;;;19.02;8.35;;;;;;;10.01;68.20;100336.53;3407481;85;99047;-93
2022/02/24 11:53:05;;;;;;;20.83;8.47;;;;;;;10.05;67.54;100323.66;3399097;84;99091;-91
2022/02/24 11:58:37;;;;;;;21.47;8.20;;;;;;;10.14;67.94;100322.19;3430826;83;99547;-93
2022/02/24 12:03:50;;;;;;;20.72;7.45;;;;;;;10.13;67.42;100306.86;3410851;84;99250;-91
2022/02/24 12:09:10;;;;;;;17.87;7.07;;;;;;;10.23;67.31;100295.75;3325216;85;99018;-92
2022/02/24 12:14:29;;;;;;;19.90;7.17;;;;;;;10.30;66.82;100285.62;3318130;87;99471;-92
2022/02/24 12:19:58;;;;;;;19.50;7.20;;;;;;;10.28;65.00;100282.47;3312939;87;99426;-89
2022/02/24 12:25:19;;;;;;;16.90;6.53;;;;;;;10.18;63.01;100278.22;3294200;87;99616;-92
2022/02/24 12:30:28;;;;;;;15.43;7.25;;;;;;;10.08;63.19;100273.42;3377067;86;99305;-89
2022/02/24 12:35:33;;;;;;;14.38;5.95;;;;;;;10.07;64.12;100262.19;3377596;86;31050;-92
2022/02/24 12:40:42;;;;;;;17.93;6.40;;;;;;;10.07;63.11;100257.50;3374356;85;99070;-90
2022/02/24 12:45:46;;;;;;;13.67;5.43;;;;;;;10.06;62.42;100249.62;3325933;86;99058;-87
2022/02/24 12:50:55;;;;;;;17.85;5.60;;;;;;;10.00;60.25;100239.53;3317320;87;99083;-90
2022/02/24 12:55:58;;;;;;;15.35;5.40;;;;;;;9.89;58.85;100237.83;3308771;86;99276;-91
2022/02/24 13:00:59;;;;;;;13.77;5.47;;;;;;;9.84;59.73;100223.84;3324161;86;99277;-93
2022/02/24 13:06:01;;;;;;;14.17;5.23;;;;;;;9.77;59.12;100211.38;3333306;87;26240;-95
2022/02/24 13:11:03;;;;;;;13.58;4.40;;;;;;;9.78;58.17;100206.69;3325726;87;98463;-93
2022/02/24 13:16:08;;;;;;;14.58;5.12;;;;;;;9.72;57.92;100193.89;3289808;86;99172;-91
2022/02/24 13:21:11;;;;;;;14.55;4.42;;;;;;;9.70;59.79;100178.94;3315080;87;99090;-90
2022/02/24 13:26:14;;;;;;;15.90;4.87;;;;;;;9.70;59.79;100175.59;3330540;87;98814;-94
2022/02/24 13:31:18;;;;;;;11.93;4.90;;;;;;;9.68;58.95;100157.91;3330820;85;98956;-93
2022/02/24 13:36:24;;;;;;;15.13;4.83;;;;;;;9.59;56.67;100156.06;3339619;86;98792;-90
2022/02/24 13:41:25;;;;;;;10.63;3.90;;;;;;;9.57;58.49;100142.70;3333235;86;98215;-92
2022/02/24 13:46:41;;;;;;;14.17;4.53;;;;;;;9.54;58.85;100126.95;3319308;87;99207;-91
2022/02/24 13:51:42;;;;;;;16.20;5.03;;;;;;;9.49;58.18;100108.06;3329777;85;98755;-91
2022/02/24 13:56:43;;;;;;;14.30;4.43;;;;;;;9.44;57.76;100117.23;3339313;86;98748;-90
2022/02/24 14:01:51;;;;;;;17.10;5.97;;;;;;;9.42;58.23;100095.64;3315619;85;98687;-92
2022/02/24 14:06:53;;;;;;;12.60;4.97;;;;;;;9.39;59.09;100081.88;3329599;85;99319;-91
2022/02/24 14:11:55;;;;;;;12.82;5.15;;;;;;;9.35;59.01;100071.42;3416367;85;30618;-90
2022/02/24 14:16:58;;;;;;;13.87;5.13;;;;;;;9.33;60.45;100060.81;3405925;84;99123;-90
2022/02/24 14:21:59;;;;;;;16.45;5.30;;;;;;;9.31;60.94;100054.12;3418245;84;98549;-89
2022/02/24 14:27:00;;;;;;;16.02;5.92;;;;;;;9.29;61.35;100040.79;3405088;84;108269;-91
2022/02/24 14:32:03;;;;;;;15.10;6.37;;;;;;;9.29;61.17;100037.23;3410659;85;99439;-91
2022/02/24 14:37:04;;;;;;;15.13;5.80;;;;;;;9.26;61.21;100031.91;3406419;84;98667;-91
2022/02/24 14:42:05;;;;;;;17.03;6.13;;;;;;;9.26;62.32;100021.53;3414703;85;26004;-95
2022/02/24 14:47:07;;;;;;;22.63;6.30;;;;;;;9.26;62.32;100021.53;3415134;85;98545;-92
2022/02/24 14:52:08;;;;;;;15.10;6.25;;;;;;;9.21;62.43;100017.16;3410504;85;99312;-92
2022/02/24 14:57:10;;;;;;;16.40;6.47;;;;;;;9.17;62.68;100003.97;3401349;84;98905;-91
2022/02/24 15:02:12;;;;;;;18.37;7.27;;;;;;;9.16;62.69;99990.04;3419024;84;98700;-93
2022/02/24 15:07:13;;;;;;;15.75;6.30;;;;;;;9.12;62.55;99985.13;3410155;84;98729;-89
2022/02/24 15:12:14;;;;;;;14.80;6.00;;;;;;;9.08;62.56;99980.74;3357640;83;98856;-90
2022/02/24 15:17:16;;;;;;;16.63;6.03;;;;;;;9.05;63.09;99967.79;3349002;84;98618;-94
2022/02/24 15:22:18;;;;;;;13.97;5.73;;;;;;;8.98;63.10;99954.78;3349720;84;98439;-93
2022/02/24 15:27:19;;;;;;;18.98;6.15;;;;;;;8.96;62.70;99955.75;3352288;84;99099;-93
2022/02/24 15:32:20;;;;;;;16.37;6.17;;;;;;;8.91;63.16;99949.80;3346548;82;98597;-88
2022/02/24 15:37:21;;;;;;;15.63;6.00;;;;;;;8.83;62.00;99947.56;3349102;84;99310;-92
2022/02/24 15:42:22;;;;;;;14.83;5.73;;;;;;;8.78;62.85;99931.44;3348821;84;99093;-94
2022/02/24 15:47:24;;;;;;;17.40;6.20;;;;;;;8.75;62.81;99924.55;3353833;86;98553;-91
2022/02/24 15:52:26;;;;;;;17.30;6.70;;;;;;;8.69;62.52;99924.69;3291740;87;99118;-93
2022/02/24 15:57:28;;;;;;;17.17;6.87;;;;;;;8.62;62.56;99924.02;3293763;84;99076;-90
2022/02/24 16:02:28;;;;;;;19.37;6.67;;;;;;;8.55;62.24;99923.95;3337049;87;99083;-91
2022/02/24 16:07:29;;;;;;;18.35;7.28;;;;;;;8.50;62.62;99913.31;3337523;85;99238;-91
2022/02/24 16:12:32;;;;;;;18.50;6.73;;;;;;;8.43;62.35;99907.77;3341563;85;99103;-91
2022/02/24 16:17:34;;;;;;;16.63;6.60;;;;;;;8.38;62.32;99899.87;3330650;87;98218;-89
2022/02/24 16:22:35;;;;;;;18.90;7.40;;;;;;;8.34;62.25;99899.63;3332016;87;99144;-90
2022/02/24 16:27:36;;;;;;;17.67;6.65;;;;;;;8.27;62.37;99899.53;3324976;87;98993;-92
2022/02/24 16:32:37;;;;;;;17.10;6.83;;;;;;;8.20;62.73;99887.12;3355089;85;98986;-92
2022/02/24 16:37:41;;;;;;;14.73;6.10;;;;;;;8.14;62.90;99885.84;3325676;85;98961;-89
2022/02/24 16:42:43;;;;;;;19.80;6.83;;;;;;;8.11;63.54;99878.36;3323876;85;99215;-87
2022/02/24 16:47:44;;;;;;;17.50;6.23;;;;;;;8.04;63.25;99876.91;3322775;87;98621;-85
2022/02/24 16:52:46;;;;;;;16.50;6.83;;;;;;;8.01;63.35;99853.78;3332165;87;98371;-90
2022/02/24 16:57:47;;;;;;;15.97;6.00;;;;;;;7.99;63.43;99867.08;3320917;87;98328;-89
2022/02/24 17:02:50;;;;;;;21.50;6.70;;;;;;;7.97;63.55;99854.91;3340325;87;98562;-91
2022/02/24 17:07:52;;;;;;;16.97;6.45;;;;;;;7.94;63.66;99857.81;3311274;87;98578;-89
2022/02/24 17:12:53;;;;;;;21.62;8.73;;;;;;;7.94;63.60;99851.53;3364436;86;99266;-88
2022/02/24 17:17:54;;;;;;;21.83;8.77;;;;;;;7.91;63.55;99838.00;3378332;85;98375;-89
2022/02/24 17:22:55;;;;;;;17.00;6.77;;;;;;;7.89;63.25;99841.70;3346318;85;98373;-91
2022/02/24 17:27:56;;;;;;;17.97;7.43;;;;;;;7.87;63.74;99839.13;3352856;82;98328;-90
2022/02/24 17:32:57;;;;;;;19.33;8.77;;;;;;;7.84;64.14;99820.11;3351760;85;99228;-89
2022/02/24 17:37:59;;;;;;;18.20;8.07;;;;;;;7.79;64.22;99817.70;3331698;86;98509;-88
2022/02/24 17:43:00;;;;;;;23.05;8.28;;;;;;;7.74;64.39;99824.88;3374451;85;98575;-89
2022/02/24 17:48:01;;;;;;;21.57;8.60;;;;;;;7.70;65.14;99808.97;3359489;85;98623;-92
2022/02/24 17:53:02;;;;;;;24.90;10.07;;;;;;;7.67;64.90;99796.04;3390590;86;98218;-89
2022/02/24 17:58:03;;;;;;;18.30;8.18;;;;;;;7.66;64.96;99791.73;3367308;85;98584;-90
2022/02/24 18:03:04;;;;;;;20.23;8.77;;;;;;;7.67;65.08;99778.80;3382652;86;98596;-90
2022/02/24 18:08:05;;;;;;;20.70;7.30;;;;;;;7.66;65.36;99776.67;3362692;85;98939;-93
2022/02/24 18:13:06;;;;;;;20.63;8.00;;;;;;;7.65;65.41;99772.92;3360869;86;98841;-89
2022/02/24 18:18:08;;;;;;;20.43;7.28;;;;;;;7.65;65.51;99766.08;3464334;83;98630;-88
2022/02/24 18:23:09;;;;;;;22.07;8.73;;;;;;;7.64;65.65;99739.27;3421390;85;25849;-88
2022/02/24 18:28:09;;;;;;;17.33;7.13;;;;;;;7.65;65.79;99740.86;3418370;82;98287;-88
2022/02/24 18:33:10;;;;;;;19.67;7.30;;;;;;;7.64;66.03;99731.05;3409180;84;98537;-88
2022/02/24 18:38:11;;;;;;;21.67;7.93;;;;;;;7.64;66.29;99731.64;3444772;83;98641;-92
2022/02/24 18:43:12;;;;;;;21.10;8.60;;;;;;;7.61;66.05;99720.06;3472704;83;98937;-92
2022/02/24 18:48:14;;;;;;;21.87;9.20;;;;;;;7.63;66.62;99717.75;3475320;82;98688;-89
2022/02/24 18:53:18;;;;;;;24.20;9.50;;;;;;;7.60;66.90;99706.96;3496681;82;33755;-90
2022/02/24 18:58:19;;;;;;;25.07;11.33;;;;;;;7.58;67.09;99703.80;3482108;79;98725;-90
2022/02/24 19:03:20;;;;;;;21.53;10.40;;;;;;;7.56;67.35;99697.91;3508347;82;98706;-90
2022/02/24 19:08:23;;;;;;;22.62;7.92;;;;;;;7.56;67.58;99691.07;3488775;82;98863;-88
2022/02/24 19:13:25;;;;;;;19.23;8.43;;;;;;;7.60;67.04;99696.02;3490336;83;98475;-90
2022/02/24 19:18:26;;;;;;;19.13;8.83;;;;;;;7.62;67.31;99681.92;3482180;82;98467;-89
2022/02/24 19:23:27;;;;;;;18.57;8.10;;;;;;;7.65;67.42;99677.08;3478991;82;33282;-91
2022/02/24 19:28:28;;;;;;;16.67;7.53;;;;;;;7.68;67.61;99659.31;3484919;82;99027;-90
2022/02/24 19:33:29;;;;;;;19.07;7.47;;;;;;;7.70;67.17;99654.83;3478767;80;98717;-92
2022/02/24 19:38:30;;;;;;;18.83;8.30;;;;;;;7.73;67.39;99648.59;3476376;82;98866;-89
2022/02/24 19:43:34;;;;;;;21.57;8.83;;;;;;;7.66;67.23;99624.68;3487941;83;98475;-91
2022/02/24 19:48:35;;;;;;;17.67;8.67;;;;;;;7.75;67.39;99633.35;3485113;82;100341;-90
2022/02/24 19:53:35;;;;;;;18.33;7.90;;;;;;;7.74;67.80;99624.94;3477681;83;33196;-91
2022/02/24 19:58:37;;;;;;;19.10;8.53;;;;;;;7.76;67.64;99617.15;3483043;82;98952;-92
2022/02/24 20:03:37;;;;;;;19.37;7.43;;;;;;;7.77;67.73;99605.59;3450821;83;98406;-89
2022/02/24 20:08:38;;;;;;;15.72;7.70;;;;;;;7.77;67.75;99600.91;3466371;83;98778;-90
2022/02/24 20:13:39;;;;;;;18.13;7.77;;;;;;;7.80;68.02;99587.05;3430672;83;98922;-91
2022/02/24 20:18:42;;;;;;;20.10;9.07;;;;;;;7.83;67.96;99591.19;3411649;85;98890;-89
2022/02/24 20:23:45;;;;;;;20.95;9.50;;;;;;;7.84;68.25;99573.58;3410318;85;33903;-91
2022/02/24 20:28:46;;;;;;;21.03;8.67;;;;;;;7.85;67.91;99580.63;3408312;82;98739;-91
2022/02/24 20:33:47;;;;;;;22.97;9.30;;;;;;;7.88;68.39;99567.55;3411894;83;98819;-90
2022/02/24 20:38:49;;;;;;;21.30;9.13;;;;;;;7.94;68.34;99563.29;3416806;82;98591;-89
2022/02/24 20:43:50;;;;;;;20.47;8.87;;;;;;;7.97;68.23;99560.38;3441386;83;98583;-91
2022/02/24 20:48:51;;;;;;;20.97;8.03;;;;;;;8.00;68.48;99558.23;3426804;85;98982;-91
2022/02/24 20:53:52;;;;;;;17.87;7.20;;;;;;;8.05;68.31;99556.50;3424570;84;33252;-92
2022/02/24 20:58:53;;;;;;;17.23;6.90;;;;;;;8.08;68.41;99553.79;3426764;83;98469;-89
2022/02/24 21:03:54;;;;;;;19.33;7.93;;;;;;;8.14;68.51;99552.86;3426633;84;97975;-91
2022/02/24 21:08:55;;;;;;;17.57;7.40;;;;;;;8.17;68.77;99545.23;3411559;84;98852;-93
2022/02/24 21:13:56;;;;;;;21.00;8.20;;;;;;;8.22;68.56;99543.53;3480675;82;98463;-91
2022/02/24 21:18:57;;;;;;;20.17;7.80;;;;;;;8.27;68.79;99540.43;3492619;83;98636;-92
2022/02/24 21:23:58;;;;;;;17.13;6.47;;;;;;;8.32;68.59;99531.28;3506379;83;33269;-91
2022/02/24 21:29:00;;;;;;;15.00;6.60;;;;;;;8.38;68.91;99527.57;3479423;83;98591;-89
2022/02/24 21:34:02;;;;;;;16.07;7.47;;;;;;;8.37;68.92;99530.92;3495608;83;98759;-91
2022/02/24 21:39:05;;;;;;;20.48;7.78;;;;;;;8.40;69.27;99525.25;3483021;80;98585;-91
2022/02/24 21:44:06;;;;;;;17.10;7.07;;;;;;;8.47;68.96;99514.31;3503995;83;98550;-88
2022/02/24 21:49:06;;;;;;;17.10;7.30;;;;;;;8.54;69.17;99521.98;3487302;82;98570;-90
2022/02/24 21:54:08;;;;;;;19.27;7.50;;;;;;;8.59;69.21;99511.23;3491956;82;98530;-92
2022/02/24 21:59:08;;;;;;;18.47;8.10;;;;;;;8.62;69.30;99522.20;3477554;83;98505;-89
2022/02/24 22:04:12;;;;;;;21.13;8.07;;;;;;;8.67;69.38;99517.72;3498129;81;98422;-91
2022/02/24 22:09:13;;;;;;;16.03;7.23;;;;;;;8.73;69.56;99523.03;3489957;82;98582;-89
2022/02/24 22:14:14;;;;;;;15.43;6.10;;;;;;;8.78;69.80;99516.41;3488672;83;98493;-89
2022/02/24 22:19:15;;;;;;;15.07;5.90;;;;;;;8.82;69.94;99514.44;3478091;83;98533;-89
2022/02/24 22:24:16;;;;;;;13.03;5.40;;;;;;;8.91;69.88;99520.36;3486916;82;98858;-93
2022/02/24 22:29:17;;;;;;;15.35;4.83;;;;;;;8.98;70.03;99517.62;3483017;83;98295;-87
2022/02/24 22:34:18;;;;;;;12.93;5.03;;;;;;;9.05;69.97;99513.55;3490754;80;98317;-90
2022/02/24 22:39:19;;;;;;;12.20;4.37;;;;;;;9.14;69.71;99507.08;3492564;83;99221;-91
2022/02/24 22:44:21;;;;;;;11.70;4.17;;;;;;;9.18;69.65;99508.68;3505727;83;98589;-92
2022/02/24 22:49:23;;;;;;;11.37;4.60;;;;;;;9.18;69.53;99522.41;3509015;82;98456;-92
2022/02/24 22:54:24;;;;;;;14.40;4.57;;;;;;;9.20;69.84;99509.64;3505272;81;99009;-91
2022/02/24 22:59:25;;;;;;;12.70;5.00;;;;;;;9.21;69.98;99513.98;3483093;83;98713;-95
2022/02/24 23:09:45;;;;;;;12.88;5.55;;;;;;;9.27;70.14;99511.05;3493798;82;98695;-90
2022/02/24 23:14:46;;;;;;;12.43;5.40;;;;;;;9.29;70.32;99519.09;3497021;82;98520;-90
2022/02/24 23:19:47;;;;;;;13.23;4.57;;;;;;;9.28;70.35;99523.59;3489548;82;98957;-91
2022/02/24 23:24:48;;;;;;;16.93;6.20;;;;;;;9.31;70.26;99542.81;3495302;83;98852;-90